Pagina principale
METAR-TAF:

METAR-TAF

Aeroporti :

Aeroporto militare Cameri

Novara, Italia

latitudine: 45-31N, longitudine: 008-40E, altezza: 178 m

Osservazione

Il bollettino è stato emesso 43 minuti fa, alle 15:55 UTC
Vento 3 kt da sud, variando fra est e ovest
Temperature 29°C
Umidità 55%
Pressione 1016 hPa
Visibilità 10 km o più
Poco nuvoloso ad un'altezza di 3000 ft

METAR: LIMN 191555Z 19003KT 100V260 9999 FEW030 29/19 Q1016 RMK BKN BKN100 VIS MIN 9999 BLK BLU

Ora: 18:38 (16:38 UTC)

Previsione

Il bollettino è stato emesso 2 ore e 38 minuti fa, alle 14:00 UTC
Previsione valida dal 19 alle 15 UTC al 19 alle 24 UTC
Vento 8 kt da nord/nord-est
Visibilità 10 km o più
Nubi sparse ad un'altezza di 3000 ft
Temporaneamente
dal 19 alle 18 UTC al 19 alle 24 UTC
Visibilità: 5000 m
Poco nuvoloso ad un'altezza di 2500 ft, Cumulonembo.
Nubi sparse ad un'altezza di 4000 ft
temporale, pioggia

TAF: LIMN 191400Z 1915/1924 02008KT 9999 SCT030 TEMPO 1918/1924 5000 TSRA FEW025CB SCT040

Osservazioni e previsioni meteorologiche di più di 4000 aeroporti (messaggi METAR e TAF).

Le stazioni disponibili sono rappresentate dai dischi gialli e rossi sulla carta.

Puntare il mouse per vedere il nome della stazione.

Clicca sopra per visualizzare le osservazioni e previsioni meteorologiche.

Per cambiare la mappa : fare clic sui pulsanti verdi con una croce nera per ingrandire, il pulsante verde con un trattino per diminuire, o sulla freccia verde per le mappe adiacenti.


METAR-TAF: